sensor_id;sensor_type;location;lat;lon;timestamp;pressure;altitude;pressure_sealevel;temperature;humidity
49515;BME280;35415;47.870;16.058;2024-02-04T00:01:44;97778.78;;;10.22;70.81
49515;BME280;35415;47.870;16.058;2024-02-04T00:04:12;97770.53;;;10.29;71.98
49515;BME280;35415;47.870;16.058;2024-02-04T00:06:39;97778.84;;;10.28;72.40
49515;BME280;35415;47.870;16.058;2024-02-04T00:09:07;97782.28;;;10.23;72.92
49515;BME280;35415;47.870;16.058;2024-02-04T00:11:34;97759.38;;;10.20;73.09
49515;BME280;35415;47.870;16.058;2024-02-04T00:14:01;97777.69;;;10.23;73.69
49515;BME280;35415;47.870;16.058;2024-02-04T00:16:29;97773.56;;;10.16;74.30
49515;BME280;35415;47.870;16.058;2024-02-04T00:18:56;97774.63;;;10.15;75.14
49515;BME280;35415;47.870;16.058;2024-02-04T00:21:23;97779.75;;;10.16;74.13
49515;BME280;35415;47.870;16.058;2024-02-04T00:23:50;97772.97;;;10.09;74.71
49515;BME280;35415;47.870;16.058;2024-02-04T00:26:18;97751.09;;;10.00;75.76
49515;BME280;35415;47.870;16.058;2024-02-04T00:28:46;97782.28;;;10.01;76.39
49515;BME280;35415;47.870;16.058;2024-02-04T00:31:13;97745.22;;;9.81;77.18
49515;BME280;35415;47.870;16.058;2024-02-04T00:33:40;97767.41;;;9.93;77.80
49515;BME280;35415;47.870;16.058;2024-02-04T00:36:07;97788.56;;;9.90;77.96
49515;BME280;35415;47.870;16.058;2024-02-04T00:38:34;97773.72;;;9.82;79.21
49515;BME280;35415;47.870;16.058;2024-02-04T00:41:01;97788.22;;;9.81;79.66
49515;BME280;35415;47.870;16.058;2024-02-04T00:43:30;97778.69;;;9.74;79.67
49515;BME280;35415;47.870;16.058;2024-02-04T00:45:57;97790.50;;;9.73;80.31
49515;BME280;35415;47.870;16.058;2024-02-04T00:48:26;97779.94;;;9.66;80.87
49515;BME280;35415;47.870;16.058;2024-02-04T00:50:53;97759.94;;;9.57;81.74
49515;BME280;35415;47.870;16.058;2024-02-04T00:53:20;97783.91;;;9.58;81.09
49515;BME280;35415;47.870;16.058;2024-02-04T00:55:47;97764.38;;;9.46;81.44
49515;BME280;35415;47.870;16.058;2024-02-04T00:58:14;97798.03;;;9.54;81.26
49515;BME280;35415;47.870;16.058;2024-02-04T01:00:42;97763.81;;;9.44;81.06
49515;BME280;35415;47.870;16.058;2024-02-04T01:03:09;97778.88;;;9.45;80.68
49515;BME280;35415;47.870;16.058;2024-02-04T01:05:37;97767.31;;;9.45;80.85
49515;BME280;35415;47.870;16.058;2024-02-04T01:08:04;97790.38;;;9.41;80.64
49515;BME280;35415;47.870;16.058;2024-02-04T01:10:31;97778.22;;;9.38;80.59
49515;BME280;35415;47.870;16.058;2024-02-04T01:12:58;97775.78;;;9.37;80.36
49515;BME280;35415;47.870;16.058;2024-02-04T01:15:26;97779.28;;;9.37;80.28
49515;BME280;35415;47.870;16.058;2024-02-04T01:17:54;97789.47;;;9.35;80.17
49515;BME280;35415;47.870;16.058;2024-02-04T01:20:21;97764.78;;;9.38;79.34
49515;BME280;35415;47.870;16.058;2024-02-04T01:22:48;97770.66;;;9.35;79.51
49515;BME280;35415;47.870;16.058;2024-02-04T01:25:15;97774.97;;;9.36;79.60
49515;BME280;35415;47.870;16.058;2024-02-04T01:27:42;97766.66;;;9.38;79.36
49515;BME280;35415;47.870;16.058;2024-02-04T01:30:10;97782.41;;;9.29;79.43
49515;BME280;35415;47.870;16.058;2024-02-04T01:32:37;97778.97;;;9.33;79.96
49515;BME280;35415;47.870;16.058;2024-02-04T01:35:07;97757.22;;;9.13;79.57
49515;BME280;35415;47.870;16.058;2024-02-04T01:37:34;97762.03;;;9.33;80.14
49515;BME280;35415;47.870;16.058;2024-02-04T01:40:01;97781.97;;;9.37;80.13
49515;BME280;35415;47.870;16.058;2024-02-04T01:42:31;97794.00;;;9.34;81.73
49515;BME280;35415;47.870;16.058;2024-02-04T01:44:58;97785.41;;;9.32;81.80
49515;BME280;35415;47.870;16.058;2024-02-04T01:47:25;97802.31;;;9.33;81.43
49515;BME280;35415;47.870;16.058;2024-02-04T01:49:52;97800.94;;;9.30;81.90
49515;BME280;35415;47.870;16.058;2024-02-04T01:52:21;97769.56;;;9.14;81.97
49515;BME280;35415;47.870;16.058;2024-02-04T01:54:48;97804.75;;;9.34;82.42
49515;BME280;35415;47.870;16.058;2024-02-04T01:57:17;97794.25;;;9.33;82.99
49515;BME280;35415;47.870;16.058;2024-02-04T01:59:44;97798.25;;;9.30;82.97
49515;BME280;35415;47.870;16.058;2024-02-04T02:02:12;97796.94;;;9.33;83.42
49515;BME280;35415;47.870;16.058;2024-02-04T02:04:39;97792.56;;;9.27;84.30
49515;BME280;35415;47.870;16.058;2024-02-04T02:07:07;97775.69;;;9.10;83.99
49515;BME280;35415;47.870;16.058;2024-02-04T02:09:35;97786.03;;;9.23;85.24
49515;BME280;35415;47.870;16.058;2024-02-04T02:12:08;97770.75;;;9.23;86.31
49515;BME280;35415;47.870;16.058;2024-02-04T02:14:39;97785.03;;;9.24;86.90
49515;BME280;35415;47.870;16.058;2024-02-04T02:17:12;97783.72;;;9.26;87.86
49515;BME280;35415;47.870;16.058;2024-02-04T02:19:47;97770.63;;;9.13;89.17
49515;BME280;35415;47.870;16.058;2024-02-04T02:22:25;97778.75;;;9.18;89.63
49515;BME280;35415;47.870;16.058;2024-02-04T02:24:56;97782.97;;;9.14;90.15
49515;BME280;35415;47.870;16.058;2024-02-04T02:27:23;97792.59;;;9.10;90.59
49515;BME280;35415;47.870;16.058;2024-02-04T02:29:50;97790.16;;;9.09;89.66
49515;BME280;35415;47.870;16.058;2024-02-04T02:32:17;97791.44;;;9.06;90.45
49515;BME280;35415;47.870;16.058;2024-02-04T02:34:46;97792.91;;;8.97;90.53
49515;BME280;35415;47.870;16.058;2024-02-04T02:37:32;97812.34;;;9.04;90.56
49515;BME280;35415;47.870;16.058;2024-02-04T02:40:09;97802.84;;;8.96;91.75
49515;BME280;35415;47.870;16.058;2024-02-04T02:42:38;97800.06;;;8.91;93.25
49515;BME280;35415;47.870;16.058;2024-02-04T02:45:08;97798.91;;;8.87;93.65
49515;BME280;35415;47.870;16.058;2024-02-04T02:47:36;97803.31;;;8.93;93.97
49515;BME280;35415;47.870;16.058;2024-02-04T02:50:06;97811.13;;;8.95;94.34
49515;BME280;35415;47.870;16.058;2024-02-04T02:52:33;97818.84;;;8.91;95.20
49515;BME280;35415;47.870;16.058;2024-02-04T02:55:00;97807.69;;;8.99;95.74
49515;BME280;35415;47.870;16.058;2024-02-04T02:57:29;97805.75;;;8.95;95.90
49515;BME280;35415;47.870;16.058;2024-02-04T02:59:56;97804.69;;;8.96;96.95
49515;BME280;35415;47.870;16.058;2024-02-04T03:02:23;97800.28;;;8.90;97.89
49515;BME280;35415;47.870;16.058;2024-02-04T03:04:50;97787.13;;;8.88;98.41
49515;BME280;35415;47.870;16.058;2024-02-04T03:07:17;97779.19;;;8.77;99.98
49515;BME280;35415;47.870;16.058;2024-02-04T03:09:45;97775.56;;;8.71;99.68
49515;BME280;35415;47.870;16.058;2024-02-04T03:12:12;97782.09;;;8.75;100.00
49515;BME280;35415;47.870;16.058;2024-02-04T03:14:40;97756.22;;;8.69;100.00
49515;BME280;35415;47.870;16.058;2024-02-04T03:17:07;97784.03;;;8.80;99.97
49515;BME280;35415;47.870;16.058;2024-02-04T03:19:34;97773.31;;;8.80;99.85
49515;BME280;35415;47.870;16.058;2024-02-04T03:22:01;97770.31;;;8.76;100.00
49515;BME280;35415;47.870;16.058;2024-02-04T03:24:29;97778.81;;;8.73;99.98
49515;BME280;35415;47.870;16.058;2024-02-04T03:26:56;97764.53;;;8.67;100.00
49515;BME280;35415;47.870;16.058;2024-02-04T03:29:23;97757.84;;;8.70;100.00
49515;BME280;35415;47.870;16.058;2024-02-04T03:31:51;97740.94;;;8.53;100.00
49515;BME280;35415;47.870;16.058;2024-02-04T03:34:19;97763.63;;;8.62;100.00
49515;BME280;35415;47.870;16.058;2024-02-04T03:36:46;97769.25;;;8.60;100.00
49515;BME280;35415;47.870;16.058;2024-02-04T03:39:13;97758.53;;;8.60;100.00
49515;BME280;35415;47.870;16.058;2024-02-04T03:41:40;97758.75;;;8.59;100.00
49515;BME280;35415;47.870;16.058;2024-02-04T03:44:07;97754.47;;;8.58;100.00
49515;BME280;35415;47.870;16.058;2024-02-04T03:46:34;97768.69;;;8.58;100.00
49515;BME280;35415;47.870;16.058;2024-02-04T03:49:03;97771.13;;;8.60;100.00
49515;BME280;35415;47.870;16.058;2024-02-04T03:51:30;97759.34;;;8.61;100.00
49515;BME280;35415;47.870;16.058;2024-02-04T03:53:57;97757.34;;;8.56;100.00
49515;BME280;35415;47.870;16.058;2024-02-04T03:56:25;97760.88;;;8.57;99.89
49515;BME280;35415;47.870;16.058;2024-02-04T03:58:52;97768.31;;;8.55;99.25
49515;BME280;35415;47.870;16.058;2024-02-04T04:01:19;97757.03;;;8.53;99.29
49515;BME280;35415;47.870;16.058;2024-02-04T04:03:46;97765.88;;;8.53;98.98
49515;BME280;35415;47.870;16.058;2024-02-04T04:06:15;97718.41;;;8.37;98.31
49515;BME280;35415;47.870;16.058;2024-02-04T04:08:42;97753.03;;;8.55;98.22
49515;BME280;35415;47.870;16.058;2024-02-04T04:11:10;97753.66;;;8.57;97.18
49515;BME280;35415;47.870;16.058;2024-02-04T04:13:38;97771.59;;;8.57;96.99
49515;BME280;35415;47.870;16.058;2024-02-04T04:16:06;97783.72;;;8.59;96.78
49515;BME280;35415;47.870;16.058;2024-02-04T04:18:33;97776.72;;;8.58;96.58
49515;BME280;35415;47.870;16.058;2024-02-04T04:21:00;97784.03;;;8.63;95.96
49515;BME280;35415;47.870;16.058;2024-02-04T04:23:29;97756.22;;;8.52;96.18
49515;BME280;35415;47.870;16.058;2024-02-04T04:25:56;97761.44;;;8.59;95.83
49515;BME280;35415;47.870;16.058;2024-02-04T04:28:23;97788.00;;;8.60;96.75
49515;BME280;35415;47.870;16.058;2024-02-04T04:30:50;97767.63;;;8.59;96.45
49515;BME280;35415;47.870;16.058;2024-02-04T04:33:18;97762.16;;;8.54;96.85
49515;BME280;35415;47.870;16.058;2024-02-04T04:35:45;97754.47;;;8.58;97.12
49515;BME280;35415;47.870;16.058;2024-02-04T04:38:13;97764.38;;;8.57;97.35
49515;BME280;35415;47.870;16.058;2024-02-04T04:40:41;97729.53;;;8.29;97.65
49515;BME280;35415;47.870;16.058;2024-02-04T04:43:08;97761.09;;;8.55;98.08
49515;BME280;35415;47.870;16.058;2024-02-04T04:45:35;97748.59;;;8.44;98.64
49515;BME280;35415;47.870;16.058;2024-02-04T04:48:03;97749.47;;;8.50;98.99
49515;BME280;35415;47.870;16.058;2024-02-04T04:50:30;97750.53;;;8.49;98.44
49515;BME280;35415;47.870;16.058;2024-02-04T04:52:57;97765.81;;;8.48;97.94
49515;BME280;35415;47.870;16.058;2024-02-04T04:55:24;97771.16;;;8.48;96.32
49515;BME280;35415;47.870;16.058;2024-02-04T04:57:53;97762.56;;;8.46;95.81
49515;BME280;35415;47.870;16.058;2024-02-04T05:00:20;97767.34;;;8.44;95.20
49515;BME280;35415;47.870;16.058;2024-02-04T05:02:47;97761.50;;;8.47;95.39
49515;BME280;35415;47.870;16.058;2024-02-04T05:05:14;97766.53;;;8.43;94.94
49515;BME280;35415;47.870;16.058;2024-02-04T05:07:42;97757.13;;;8.41;94.48
49515;BME280;35415;47.870;16.058;2024-02-04T05:10:09;97760.84;;;8.40;94.33
49515;BME280;35415;47.870;16.058;2024-02-04T05:12:36;97762.69;;;8.39;93.96
49515;BME280;35415;47.870;16.058;2024-02-04T05:15:06;97746.59;;;8.39;93.30
49515;BME280;35415;47.870;16.058;2024-02-04T05:17:33;97757.56;;;8.38;93.32
49515;BME280;35415;47.870;16.058;2024-02-04T05:20:00;97772.38;;;8.40;93.31
49515;BME280;35415;47.870;16.058;2024-02-04T05:22:28;97766.22;;;8.40;93.26
49515;BME280;35415;47.870;16.058;2024-02-04T05:24:56;97735.38;;;8.26;92.75
49515;BME280;35415;47.870;16.058;2024-02-04T05:27:23;97764.56;;;8.39;92.86
49515;BME280;35415;47.870;16.058;2024-02-04T05:29:50;97773.78;;;8.43;92.67
49515;BME280;35415;47.870;16.058;2024-02-04T05:32:19;97744.22;;;8.26;91.95
49515;BME280;35415;47.870;16.058;2024-02-04T05:34:46;97778.16;;;8.49;92.07
49515;BME280;35415;47.870;16.058;2024-02-04T05:37:13;97775.22;;;8.51;92.07
49515;BME280;35415;47.870;16.058;2024-02-04T05:39:40;97774.19;;;8.52;91.33
49515;BME280;35415;47.870;16.058;2024-02-04T05:42:07;97756.63;;;8.44;90.89
49515;BME280;35415;47.870;16.058;2024-02-04T05:44:34;97777.09;;;8.50;90.49
49515;BME280;35415;47.870;16.058;2024-02-04T05:47:02;97784.09;;;8.51;90.22
49515;BME280;35415;47.870;16.058;2024-02-04T05:49:30;97792.22;;;8.56;88.72
49515;BME280;35415;47.870;16.058;2024-02-04T05:51:57;97794.19;;;8.61;87.98
49515;BME280;35415;47.870;16.058;2024-02-04T05:54:24;97795.00;;;8.61;87.43
49515;BME280;35415;47.870;16.058;2024-02-04T05:56:51;97796.06;;;8.60;87.24
49515;BME280;35415;47.870;16.058;2024-02-04T05:59:18;97788.16;;;8.54;87.28
49515;BME280;35415;47.870;16.058;2024-02-04T06:01:45;97780.09;;;8.54;87.16
49515;BME280;35415;47.870;16.058;2024-02-04T06:04:12;97802.59;;;8.53;87.46
49515;BME280;35415;47.870;16.058;2024-02-04T06:06:41;97802.84;;;8.51;87.35
49515;BME280;35415;47.870;16.058;2024-02-04T06:09:08;97802.59;;;8.53;87.56
49515;BME280;35415;47.870;16.058;2024-02-04T06:11:36;97800.41;;;8.50;88.16
49515;BME280;35415;47.870;16.058;2024-02-04T06:14:03;97801.38;;;8.43;89.59
49515;BME280;35415;47.870;16.058;2024-02-04T06:16:30;97796.34;;;8.47;89.70
49515;BME280;35415;47.870;16.058;2024-02-04T06:18:59;97809.50;;;8.49;89.25
49515;BME280;35415;47.870;16.058;2024-02-04T06:21:26;97809.28;;;8.50;89.49
49515;BME280;35415;47.870;16.058;2024-02-04T06:23:55;97803.38;;;8.36;89.78
49515;BME280;35415;47.870;16.058;2024-02-04T06:26:22;97813.16;;;8.42;89.94
49515;BME280;35415;47.870;16.058;2024-02-04T06:28:49;97806.63;;;8.38;90.49
49515;BME280;35415;47.870;16.058;2024-02-04T06:31:16;97813.41;;;8.41;90.42
49515;BME280;35415;47.870;16.058;2024-02-04T06:33:44;97813.41;;;8.41;89.79
49515;BME280;35415;47.870;16.058;2024-02-04T06:36:11;97818.78;;;8.41;90.19
49515;BME280;35415;47.870;16.058;2024-02-04T06:38:38;97812.00;;;8.38;90.08
49515;BME280;35415;47.870;16.058;2024-02-04T06:41:07;97797.91;;;8.31;90.13
49515;BME280;35415;47.870;16.058;2024-02-04T06:43:36;97811.53;;;8.41;89.84
49515;BME280;35415;47.870;16.058;2024-02-04T06:46:04;97814.69;;;8.38;90.16
49515;BME280;35415;47.870;16.058;2024-02-04T06:48:31;97812.72;;;8.34;89.99
49515;BME280;35415;47.870;16.058;2024-02-04T06:50:58;97818.97;;;8.39;89.38
49515;BME280;35415;47.870;16.058;2024-02-04T06:53:25;97813.75;;;8.33;89.47
49515;BME280;35415;47.870;16.058;2024-02-04T06:55:53;97812.13;;;8.32;89.22
49515;BME280;35415;47.870;16.058;2024-02-04T06:58:21;97766.47;;;7.98;88.65
49515;BME280;35415;47.870;16.058;2024-02-04T07:00:48;97800.03;;;8.29;88.15
49515;BME280;35415;47.870;16.058;2024-02-04T07:03:15;97823.19;;;8.35;87.61
49515;BME280;35415;47.870;16.058;2024-02-04T07:05:42;97836.59;;;8.35;87.29
49515;BME280;35415;47.870;16.058;2024-02-04T07:08:12;97823.66;;;8.32;87.18
49515;BME280;35415;47.870;16.058;2024-02-04T07:10:40;97830.78;;;8.27;87.32
49515;BME280;35415;47.870;16.058;2024-02-04T07:13:07;97829.75;;;8.28;87.00
49515;BME280;35415;47.870;16.058;2024-02-04T07:15:38;97793.00;;;8.00;87.07
49515;BME280;35415;47.870;16.058;2024-02-04T07:18:05;97821.69;;;8.28;86.94
49515;BME280;35415;47.870;16.058;2024-02-04T07:20:33;97813.34;;;8.24;86.91
49515;BME280;35415;47.870;16.058;2024-02-04T07:23:00;97820.56;;;8.24;87.10
49515;BME280;35415;47.870;16.058;2024-02-04T07:25:27;97813.91;;;8.26;87.13
49515;BME280;35415;47.870;16.058;2024-02-04T07:27:54;97817.88;;;8.24;87.27
49515;BME280;35415;47.870;16.058;2024-02-04T07:30:22;97805.81;;;8.09;88.15
49515;BME280;35415;47.870;16.058;2024-02-04T07:32:50;97769.75;;;7.89;88.29
49515;BME280;35415;47.870;16.058;2024-02-04T07:35:17;97828.34;;;8.25;88.60
49515;BME280;35415;47.870;16.058;2024-02-04T07:37:45;97816.91;;;8.30;88.07
49515;BME280;35415;47.870;16.058;2024-02-04T07:40:12;97818.28;;;8.32;88.22
49515;BME280;35415;47.870;16.058;2024-02-04T07:42:39;97832.38;;;8.39;88.63
49515;BME280;35415;47.870;16.058;2024-02-04T07:45:08;97816.66;;;8.31;88.60
49515;BME280;35415;47.870;16.058;2024-02-04T07:47:35;97821.44;;;8.41;89.42
49515;BME280;35415;47.870;16.058;2024-02-04T07:50:05;97830.06;;;8.43;88.74
49515;BME280;35415;47.870;16.058;2024-02-04T07:52:33;97835.50;;;8.48;88.21
49515;BME280;35415;47.870;16.058;2024-02-04T07:55:00;97814.88;;;8.49;87.57
49515;BME280;35415;47.870;16.058;2024-02-04T07:57:27;97824.63;;;8.55;88.54
49515;BME280;35415;47.870;16.058;2024-02-04T07:59:54;97830.91;;;8.60;87.66
49515;BME280;35415;47.870;16.058;2024-02-04T08:02:21;97814.66;;;8.67;88.06
49515;BME280;35415;47.870;16.058;2024-02-04T08:04:48;97809.38;;;8.72;88.16
49515;BME280;35415;47.870;16.058;2024-02-04T08:07:17;97765.72;;;8.43;86.59
49515;BME280;35415;47.870;16.058;2024-02-04T08:09:46;97809.63;;;8.87;86.58
49515;BME280;35415;47.870;16.058;2024-02-04T08:12:13;97810.81;;;8.91;85.86
49515;BME280;35415;47.870;16.058;2024-02-04T08:14:40;97813.25;;;8.93;86.51
49515;BME280;35415;47.870;16.058;2024-02-04T08:17:07;97799.91;;;8.98;85.69
49515;BME280;35415;47.870;16.058;2024-02-04T08:19:34;97806.16;;;9.03;85.74
49515;BME280;35415;47.870;16.058;2024-02-04T08:22:01;97788.75;;;9.06;85.52
49515;BME280;35415;47.870;16.058;2024-02-04T08:24:31;97791.91;;;9.03;85.24
49515;BME280;35415;47.870;16.058;2024-02-04T08:26:59;97802.91;;;9.18;84.15
49515;BME280;35415;47.870;16.058;2024-02-04T08:29:26;97780.38;;;9.19;84.17
49515;BME280;35415;47.870;16.058;2024-02-04T08:31:53;97790.13;;;9.25;83.57
49515;BME280;35415;47.870;16.058;2024-02-04T08:34:20;97788.59;;;9.29;82.67
49515;BME280;35415;47.870;16.058;2024-02-04T08:36:49;97801.25;;;9.34;82.51
49515;BME280;35415;47.870;16.058;2024-02-04T08:39:16;97771.09;;;9.27;82.41
49515;BME280;35415;47.870;16.058;2024-02-04T08:41:45;97727.72;;;8.96;83.67
49515;BME280;35415;47.870;16.058;2024-02-04T08:44:12;97783.59;;;9.38;82.62
49515;BME280;35415;47.870;16.058;2024-02-04T08:46:39;97784.41;;;9.39;83.19
49515;BME280;35415;47.870;16.058;2024-02-04T08:49:06;97790.13;;;9.42;83.12
49515;BME280;35415;47.870;16.058;2024-02-04T08:51:33;97803.34;;;9.49;82.66
49515;BME280;35415;47.870;16.058;2024-02-04T08:54:00;97802.34;;;9.55;81.71
49515;BME280;35415;47.870;16.058;2024-02-04T08:56:28;97792.66;;;9.54;81.78
49515;BME280;35415;47.870;16.058;2024-02-04T08:58:56;97764.63;;;9.45;80.94
49515;BME280;35415;47.870;16.058;2024-02-04T09:01:25;97778.34;;;9.65;80.93
49515;BME280;35415;47.870;16.058;2024-02-04T09:03:52;97772.34;;;9.58;80.09
49515;BME280;35415;47.870;16.058;2024-02-04T09:06:19;97789.22;;;9.75;79.14
49515;BME280;35415;47.870;16.058;2024-02-04T09:08:46;97798.72;;;9.83;79.05
49515;BME280;35415;47.870;16.058;2024-02-04T09:11:14;97748.78;;;9.87;77.72
49515;BME280;35415;47.870;16.058;2024-02-04T09:13:44;97754.22;;;9.92;77.63
49515;BME280;35415;47.870;16.058;2024-02-04T09:16:13;97758.03;;;9.96;77.71
49515;BME280;35415;47.870;16.058;2024-02-04T09:18:40;97728.78;;;10.00;75.62
49515;BME280;35415;47.870;16.058;2024-02-04T09:21:07;97742.78;;;10.02;75.35
49515;BME280;35415;47.870;16.058;2024-02-04T09:23:34;97746.66;;;10.11;75.88
49515;BME280;35415;47.870;16.058;2024-02-04T09:26:01;97746.69;;;10.16;75.41
49515;BME280;35415;47.870;16.058;2024-02-04T09:28:28;97742.69;;;10.18;75.33
49515;BME280;35415;47.870;16.058;2024-02-04T09:30:55;97757.34;;;10.28;74.20
49515;BME280;35415;47.870;16.058;2024-02-04T09:33:24;97771.59;;;10.28;75.58
49515;BME280;35415;47.870;16.058;2024-02-04T09:35:52;97750.13;;;10.33;74.28
49515;BME280;35415;47.870;16.058;2024-02-04T09:38:20;97748.81;;;10.36;74.08
49515;BME280;35415;47.870;16.058;2024-02-04T09:40:47;97729.16;;;10.35;73.20
49515;BME280;35415;47.870;16.058;2024-02-04T09:43:15;97741.53;;;10.36;73.00
49515;BME280;35415;47.870;16.058;2024-02-04T09:45:42;97750.22;;;10.43;72.25
49515;BME280;35415;47.870;16.058;2024-02-04T09:48:10;97727.66;;;10.44;72.01
49515;BME280;35415;47.870;16.058;2024-02-04T09:50:39;97758.91;;;10.50;71.46
49515;BME280;35415;47.870;16.058;2024-02-04T09:53:07;97754.03;;;10.47;71.45
49515;BME280;35415;47.870;16.058;2024-02-04T09:55:37;97728.75;;;10.48;72.21
49515;BME280;35415;47.870;16.058;2024-02-04T09:58:05;97725.53;;;10.46;71.38
49515;BME280;35415;47.870;16.058;2024-02-04T10:00:33;97750.03;;;10.50;70.67
49515;BME280;35415;47.870;16.058;2024-02-04T10:03:02;97751.41;;;10.58;70.18
49515;BME280;35415;47.870;16.058;2024-02-04T10:05:31;97742.78;;;10.55;69.37
49515;BME280;35415;47.870;16.058;2024-02-04T10:07:59;97723.69;;;10.52;69.65
49515;BME280;35415;47.870;16.058;2024-02-04T10:10:26;97720.69;;;10.48;69.90
49515;BME280;35415;47.870;16.058;2024-02-04T10:12:55;97713.16;;;10.50;69.60
49515;BME280;35415;47.870;16.058;2024-02-04T10:15:22;97698.06;;;10.44;69.87
49515;BME280;35415;47.870;16.058;2024-02-04T10:17:50;97696.78;;;10.52;70.29
49515;BME280;35415;47.870;16.058;2024-02-04T10:20:19;97695.97;;;10.51;70.69
49515;BME280;35415;47.870;16.058;2024-02-04T10:22:46;97701.34;;;10.51;70.31
49515;BME280;35415;47.870;16.058;2024-02-04T10:25:20;97702.44;;;10.55;69.81
49515;BME280;35415;47.870;16.058;2024-02-04T10:27:47;97682.53;;;10.51;69.36
49515;BME280;35415;47.870;16.058;2024-02-04T10:30:14;97696.31;;;10.60;69.48
49515;BME280;35415;47.870;16.058;2024-02-04T10:32:41;97692.81;;;10.60;69.69
49515;BME280;35415;47.870;16.058;2024-02-04T10:35:10;97631.19;;;10.58;68.30
49515;BME280;35415;47.870;16.058;2024-02-04T10:37:37;97654.16;;;10.71;67.97
49515;BME280;35415;47.870;16.058;2024-02-04T10:40:06;97640.69;;;10.71;68.67
49515;BME280;35415;47.870;16.058;2024-02-04T10:42:38;97645.56;;;10.74;68.48
49515;BME280;35415;47.870;16.058;2024-02-04T10:45:08;97652.34;;;10.81;68.08
49515;BME280;35415;47.870;16.058;2024-02-04T10:47:37;97616.06;;;10.89;67.25
49515;BME280;35415;47.870;16.058;2024-02-04T10:50:06;97661.31;;;10.92;67.02
49515;BME280;35415;47.870;16.058;2024-02-04T10:52:36;97643.03;;;10.99;66.52
49515;BME280;35415;47.870;16.058;2024-02-04T10:55:07;97661.63;;;11.06;66.23
49515;BME280;35415;47.870;16.058;2024-02-04T10:57:35;97646.28;;;11.06;66.13
49515;BME280;35415;47.870;16.058;2024-02-04T11:00:04;97593.25;;;11.02;66.32
49515;BME280;35415;47.870;16.058;2024-02-04T11:02:35;97590.63;;;11.12;65.94
49515;BME280;35415;47.870;16.058;2024-02-04T11:05:03;97612.97;;;11.18;65.78
49515;BME280;35415;47.870;16.058;2024-02-04T11:07:32;97589.56;;;11.23;65.72
49515;BME280;35415;47.870;16.058;2024-02-04T11:10:00;97593.38;;;11.27;65.85
49515;BME280;35415;47.870;16.058;2024-02-04T11:12:28;97590.09;;;11.20;66.28
49515;BME280;35415;47.870;16.058;2024-02-04T11:14:59;97645.56;;;11.21;66.07
49515;BME280;35415;47.870;16.058;2024-02-04T11:17:48;97590.69;;;11.27;65.93
49515;BME280;35415;47.870;16.058;2024-02-04T11:20:35;97607.66;;;11.33;66.08
49515;BME280;35415;47.870;16.058;2024-02-04T11:23:21;97600.94;;;11.35;66.15
49515;BME280;35415;47.870;16.058;2024-02-04T11:25:55;97587.47;;;11.35;65.91
49515;BME280;35415;47.870;16.058;2024-02-04T11:28:23;97569.41;;;11.41;65.94
49515;BME280;35415;47.870;16.058;2024-02-04T11:30:52;97588.84;;;11.43;65.95
49515;BME280;35415;47.870;16.058;2024-02-04T11:33:21;97563.25;;;11.51;65.50
49515;BME280;35415;47.870;16.058;2024-02-04T11:35:58;97578.34;;;11.57;65.33
49515;BME280;35415;47.870;16.058;2024-02-04T11:38:33;97581.31;;;11.55;66.28
49515;BME280;35415;47.870;16.058;2024-02-04T11:41:02;97552.75;;;11.49;66.29
49515;BME280;35415;47.870;16.058;2024-02-04T11:43:32;97579.47;;;11.61;66.61
49515;BME280;35415;47.870;16.058;2024-02-04T11:45:59;97568.97;;;11.64;65.81
49515;BME280;35415;47.870;16.058;2024-02-04T11:48:31;97573.53;;;11.69;65.32
49515;BME280;35415;47.870;16.058;2024-02-04T11:50:59;97554.16;;;11.77;65.43
49515;BME280;35415;47.870;16.058;2024-02-04T11:53:27;97582.22;;;11.81;65.92
49515;BME280;35415;47.870;16.058;2024-02-04T11:55:57;97567.66;;;11.82;65.36
49515;BME280;35415;47.870;16.058;2024-02-04T11:58:26;97573.88;;;11.83;65.37
49515;BME280;35415;47.870;16.058;2024-02-04T12:00:53;97543.41;;;11.87;64.91
49515;BME280;35415;47.870;16.058;2024-02-04T12:03:31;97567.94;;;11.86;65.12
49515;BME280;35415;47.870;16.058;2024-02-04T12:05:58;97558.78;;;11.87;65.13
49515;BME280;35415;47.870;16.058;2024-02-04T12:08:26;97557.16;;;11.91;64.88
49515;BME280;35415;47.870;16.058;2024-02-04T12:10:54;97557.97;;;11.91;64.09
49515;BME280;35415;47.870;16.058;2024-02-04T12:13:22;97553.94;;;11.94;64.43
49515;BME280;35415;47.870;16.058;2024-02-04T12:15:49;97569.31;;;11.98;64.09
49515;BME280;35415;47.870;16.058;2024-02-04T12:18:16;97534.78;;;12.00;63.91
49515;BME280;35415;47.870;16.058;2024-02-04T12:20:48;97546.38;;;12.01;63.59
49515;BME280;35415;47.870;16.058;2024-02-04T12:23:17;97539.63;;;12.09;63.54
49515;BME280;35415;47.870;16.058;2024-02-04T12:25:44;97525.09;;;12.10;63.61
49515;BME280;35415;47.870;16.058;2024-02-04T12:28:13;97506.22;;;12.10;63.34
49515;BME280;35415;47.870;16.058;2024-02-04T12:30:41;97509.16;;;12.08;63.11
49515;BME280;35415;47.870;16.058;2024-02-04T12:33:08;97515.38;;;12.09;63.66
49515;BME280;35415;47.870;16.058;2024-02-04T12:35:35;97487.34;;;12.04;63.52
49515;BME280;35415;47.870;16.058;2024-02-04T12:38:04;97517.53;;;12.07;63.84
49515;BME280;35415;47.870;16.058;2024-02-04T12:40:32;97488.13;;;12.05;63.68
49515;BME280;35415;47.870;16.058;2024-02-04T12:43:01;97516.47;;;11.97;64.21
49515;BME280;35415;47.870;16.058;2024-02-04T12:45:29;97500.56;;;12.01;64.43
49515;BME280;35415;47.870;16.058;2024-02-04T12:47:57;97487.34;;;11.99;64.33
49515;BME280;35415;47.870;16.058;2024-02-04T12:50:25;97492.19;;;11.92;64.14
49515;BME280;35415;47.870;16.058;2024-02-04T12:53:05;97493.81;;;11.98;64.17
49515;BME280;35415;47.870;16.058;2024-02-04T12:55:33;97471.97;;;12.00;63.73
49515;BME280;35415;47.870;16.058;2024-02-04T12:58:04;97480.88;;;11.95;64.13
49515;BME280;35415;47.870;16.058;2024-02-04T13:00:32;97477.09;;;11.91;64.26
49515;BME280;35415;47.870;16.058;2024-02-04T13:02:59;97495.97;;;11.96;64.89